Cielo Di Vaiano — D5AQ2 — position and weather

sailwx.info

Track history (hours):
 
Tides and Currents Weather Stations Pressure Air Temp Water Temp Dewpoint Dewpoint Depression Visibility Wind Speed Wind Dir Waves Ship Positions

Cielo Di Vaiano

Last reported at 2014-Oct-22 11:05 UTC. Time now 2014-Oct-24 23:10 UTC.
Position N 37°34' W 001°05'.

Length 183 m; draft 10.3 m.

Type: Cargo ship. MMSI: 636015421.

Date/timePositionNaut miles runAvg speedWind from/ knotsBaromVisibWave heightAir tempDewpointWater temp
2014-Oct-22 11:05N 37°34' W 001°05'0 0.3
2014-Oct-22 10:23N 37°33' W 001°04'0 0.0
2014-Oct-22 09:33N 37°33' W 001°04'0 0.0
2014-Oct-22 08:33N 37°33' W 001°04'0 0.0
2014-Oct-22 07:33N 37°33' W 001°04'0 0.0
2014-Oct-22 06:18N 37°33' W 001°04'0 0.0
2014-Oct-22 05:32N 37°33' W 001°04'0 0.0
2014-Oct-22 04:33N 37°33' W 001°04'0 0.0
2014-Oct-22 03:33N 37°33' W 001°04'0 0.0
2014-Oct-22 02:33N 37°33' W 001°04'0 0.0
2014-Oct-22 01:33N 37°33' W 001°04'0 0.2
2014-Oct-22 00:33N 37°34' W 001°04'0 0.0
2014-Oct-21 23:33N 37°34' W 001°04'0 0.0
2014-Oct-21 22:12N 37°34' W 001°04'0 0.1
2014-Oct-21 21:33N 37°34' W 001°04'0 0.0
2014-Oct-21 20:31N 37°34' W 001°04'0 0.0
2014-Oct-21 19:32N 37°34' W 001°04'0 0.1
2014-Oct-21 18:16N 37°34' W 001°04'0 0.0
2014-Oct-21 12:23N 37°34' W 001°04'0 0.0
2014-Oct-21 08:16N 37°34' W 001°05'0 0.1
2014-Oct-21 07:29N 37°34' W 001°05'0 0.0
2014-Oct-21 04:15N 37°34' W 001°04'3 3.7
2014-Oct-21 03:33N 37°33' W 001°01'1212.2
2014-Oct-21 02:33N 37°30' W 000°46'1313.3
2014-Oct-21 01:33N 37°30' W 000°30'1212.3
2014-Oct-21 00:33N 37°31' W 000°14'1312.9
2014-Oct-20 23:33N 37°31' E 000°02'1312.7
2014-Oct-20 22:33N 37°31' E 000°18'1312.7
2014-Oct-20 21:33N 37°31' E 000°34'2612.8
2014-Oct-20 19:34N 37°32' E 001°07'1312.8
2014-Oct-20 18:33N 37°32' E 001°23'1712.6
2014-Oct-20 17:11N 37°33' E 001°44'912.9
2014-Oct-20 16:31N 37°33' E 001°55'1212.7
2014-Oct-20 15:34N 37°33' E 002°11'1412.9
2014-Oct-20 14:29N 37°33' E 002°28'1514.2
2014-Oct-20 13:27N 37°34' E 002°47'6212.5
2014-Oct-20 08:30N 37°35' E 004°05'1614.0
2014-Oct-20 07:22N 37°35' E 004°25'3813.5
2014-Oct-20 04:32N 37°36' E 005°13'3812.5
2014-Oct-20 01:29N 37°37' E 006°01'1112.3
2014-Oct-20 00:33N 37°37' E 006°16'2512.3
2014-Oct-19 22:32N 37°38' E 006°47'2912.3
2014-Oct-19 20:12N 37°38' E 007°23'1613.8
2014-Oct-19 19:04N 37°39' E 007°43'4 8.6
2014-Oct-19 18:33N 37°39' E 007°48'1212.4
2014-Oct-19 17:33N 37°39' E 008°04'1313.0
2014-Oct-19 16:33N 37°39' E 008°21'1312.8
2014-Oct-19 15:33N 37°40' E 008°37'1312.9
2014-Oct-19 14:33N 37°40' E 008°53'1111.3
2014-Oct-19 13:33N 37°40' E 009°07'1211.8
2014-Oct-19 12:32N 37°40' E 009°22'1212.2
2014-Oct-19 11:33N 37°40' E 009°38'1312.1
2014-Oct-19 10:28N 37°39' E 009°54'1111.9
2014-Oct-19 09:33N 37°39' E 010°08'11512.3
2014-Oct-19 00:11N 36°59' E 012°24'812.5
2014-Oct-18 23:33N 36°57' E 012°33'1312.5
2014-Oct-18 22:29N 36°53' E 012°49'1212.7
2014-Oct-18 21:33N 36°50' E 013°03'1312.7
2014-Oct-18 20:33N 36°46' E 013°19'1312.5
2014-Oct-18 19:33N 36°42' E 013°33'1212.4
2014-Oct-18 18:33N 36°38' E 013°48'1212.2
2014-Oct-18 17:33N 36°35' E 014°03'1211.9
2014-Oct-18 16:33N 36°31' E 014°17'1211.9
2014-Oct-18 15:33N 36°28' E 014°31'1212.1
2014-Oct-18 14:33N 36°28' E 014°46'1211.8
2014-Oct-18 13:33N 36°27' E 015°01'1211.9
2014-Oct-18 12:33N 36°27' E 015°16'25211.9
2014-Oct-17 15:25N 36°21' E 020°29'1111.9
2014-Oct-17 14:32N 36°20' E 020°42'9712.0
2014-Oct-17 06:30N 36°21' E 022°42'1312.6
2014-Oct-17 05:28N 36°25' E 022°58'1112.3
2014-Oct-17 04:33N 36°24' E 023°12'1111.6
2014-Oct-17 03:33N 36°28' E 023°25'1212.0
2014-Oct-17 02:33N 36°35' E 023°37'1312.7
2014-Oct-17 01:33N 36°47' E 023°44'1312.7
2014-Oct-17 00:33N 36°58' E 023°50'1312.9
2014-Oct-16 23:33N 37°10' E 023°57'1312.5
2014-Oct-16 22:32N 37°22' E 024°03'1212.2
2014-Oct-16 21:32N 37°33' E 024°09'1211.9
2014-Oct-16 20:33N 37°43' E 024°17'1611.8
2014-Oct-16 19:12N 37°52' E 024°33'2011.9
2014-Oct-16 17:31N 38°10' E 024°45'2512.8
2014-Oct-16 15:33N 38°33' E 024°59'1512.5
2014-Oct-16 14:23N 38°46' E 025°07'1012.7
2014-Oct-16 13:33N 38°55' E 025°13'1212.2
2014-Oct-16 12:32N 39°06' E 025°20'1211.8
2014-Oct-16 11:32N 39°17' E 025°26'4012.0
2014-Oct-16 08:11N 39°53' E 025°49'1112.7
2014-Oct-16 07:17N 40°01' E 026°01'3211.4
2014-Oct-16 04:27N 40°19' E 026°36'8 9.4
2014-Oct-16 03:33N 40°25' E 026°43'8 7.8
2014-Oct-16 02:33N 40°29' E 026°52'11510.2
2014-Oct-15 15:15N 41°20' E 029°09'7 3.8
2014-Oct-15 13:30N 41°24' E 029°15'1 0.4
2014-Oct-15 10:30N 41°23' E 029°15'1 0.4
2014-Oct-15 08:12N 41°23' E 029°14'324 8.8
2014-Oct-13 19:31N 46°35' E 031°16'9 9.8
2014-Oct-13 18:33N 46°36' E 031°30'8 7.9
2014-Oct-13 17:33N 46°36' E 031°41'9 9.1
2014-Oct-13 16:33N 46°38' E 031°54'8 8.3
2014-Oct-13 15:33N 46°46' E 031°53'9 9.1
2014-Oct-13 14:33N 46°54' E 032°01'2 2.2
2014-Oct-13 13:30N 46°56' E 032°01'0 0.0
2014-Oct-13 12:24N 46°56' E 032°01'0 0.0
2014-Oct-13 11:33N 46°56' E 032°01'0 0.0
2014-Oct-13 10:33N 46°56' E 032°01'0 0.0
2014-Oct-13 09:33N 46°56' E 032°01'0 0.0
2014-Oct-13 08:33N 46°56' E 032°01'0 0.0
2014-Oct-13 07:33N 46°56' E 032°01'0 0.0
2014-Oct-13 06:33N 46°56' E 032°01'0 0.0
2014-Oct-13 05:33N 46°56' E 032°01'0 0.0
2014-Oct-13 04:33N 46°56' E 032°01'0 0.0
2014-Oct-13 03:33N 46°56' E 032°01'0 0.0
2014-Oct-13 02:33N 46°56' E 032°01'0 0.0
2014-Oct-13 01:30N 46°56' E 032°01'0 0.0
2014-Oct-13 00:33N 46°56' E 032°01'0 0.0
2014-Oct-12 23:33N 46°56' E 032°01'0 0.0
2014-Oct-12 22:33N 46°56' E 032°01'0 0.0
2014-Oct-12 21:33N 46°56' E 032°01'0 0.0
2014-Oct-12 20:33N 46°56' E 032°01'0 0.0
2014-Oct-12 19:33N 46°56' E 032°01'0 0.0
2014-Oct-12 18:33N 46°56' E 032°01'0 0.0
2014-Oct-12 17:33N 46°56' E 032°01'0 0.0
2014-Oct-12 16:33N 46°56' E 032°01'0 0.0
2014-Oct-12 15:33N 46°56' E 032°01'0 0.0
2014-Oct-12 14:33N 46°56' E 032°01'0 0.0
2014-Oct-12 13:30N 46°56' E 032°01'0 0.0
2014-Oct-12 12:33N 46°56' E 032°01'0 0.0
2014-Oct-12 11:33N 46°56' E 032°01'  
Track history (hours):
 
Tides and Currents Weather Stations Pressure Air Temp Water Temp Dewpoint Dewpoint Depression Visibility Wind Speed Wind Dir Waves Ship Positions

Cielo Di Vaiano

Last reported at 2014-Oct-22 11:05 UTC. Time now 2014-Oct-24 23:10 UTC.
Position N 37°34' W 001°05'.

Length 183 m; draft 10.3 m.

Type: Cargo ship. MMSI: 636015421.

Date/timePositionNaut miles runAvg speedWind from/ knotsBaromVisibWave heightAir tempDewpointWater temp
2014-Oct-22 11:05N 37°34' W 001°05'0 0.3
2014-Oct-22 10:23N 37°33' W 001°04'0 0.0
2014-Oct-22 09:33N 37°33' W 001°04'0 0.0
2014-Oct-22 08:33N 37°33' W 001°04'0 0.0
2014-Oct-22 07:33N 37°33' W 001°04'0 0.0
2014-Oct-22 06:18N 37°33' W 001°04'0 0.0
2014-Oct-22 05:32N 37°33' W 001°04'0 0.0
2014-Oct-22 04:33N 37°33' W 001°04'0 0.0
2014-Oct-22 03:33N 37°33' W 001°04'0 0.0
2014-Oct-22 02:33N 37°33' W 001°04'0 0.0
2014-Oct-22 01:33N 37°33' W 001°04'0 0.2
2014-Oct-22 00:33N 37°34' W 001°04'0 0.0
2014-Oct-21 23:33N 37°34' W 001°04'0 0.0
2014-Oct-21 22:12N 37°34' W 001°04'0 0.1
2014-Oct-21 21:33N 37°34' W 001°04'0 0.0
2014-Oct-21 20:31N 37°34' W 001°04'0 0.0
2014-Oct-21 19:32N 37°34' W 001°04'0 0.1
2014-Oct-21 18:16N 37°34' W 001°04'0 0.0
2014-Oct-21 12:23N 37°34' W 001°04'0 0.0
2014-Oct-21 08:16N 37°34' W 001°05'0 0.1
2014-Oct-21 07:29N 37°34' W 001°05'0 0.0
2014-Oct-21 04:15N 37°34' W 001°04'3 3.7
2014-Oct-21 03:33N 37°33' W 001°01'1212.2
2014-Oct-21 02:33N 37°30' W 000°46'1313.3
2014-Oct-21 01:33N 37°30' W 000°30'1212.3
2014-Oct-21 00:33N 37°31' W 000°14'1312.9
2014-Oct-20 23:33N 37°31' E 000°02'1312.7
2014-Oct-20 22:33N 37°31' E 000°18'1312.7
2014-Oct-20 21:33N 37°31' E 000°34'2612.8
2014-Oct-20 19:34N 37°32' E 001°07'1312.8
2014-Oct-20 18:33N 37°32' E 001°23'1712.6
2014-Oct-20 17:11N 37°33' E 001°44'912.9
2014-Oct-20 16:31N 37°33' E 001°55'1212.7
2014-Oct-20 15:34N 37°33' E 002°11'1412.9
2014-Oct-20 14:29N 37°33' E 002°28'1514.2
2014-Oct-20 13:27N 37°34' E 002°47'6212.5
2014-Oct-20 08:30N 37°35' E 004°05'1614.0
2014-Oct-20 07:22N 37°35' E 004°25'3813.5
2014-Oct-20 04:32N 37°36' E 005°13'3812.5
2014-Oct-20 01:29N 37°37' E 006°01'1112.3
2014-Oct-20 00:33N 37°37' E 006°16'2512.3
2014-Oct-19 22:32N 37°38' E 006°47'2912.3
2014-Oct-19 20:12N 37°38' E 007°23'1613.8
2014-Oct-19 19:04N 37°39' E 007°43'4 8.6
2014-Oct-19 18:33N 37°39' E 007°48'1212.4
2014-Oct-19 17:33N 37°39' E 008°04'1313.0
2014-Oct-19 16:33N 37°39' E 008°21'1312.8
2014-Oct-19 15:33N 37°40' E 008°37'1312.9
2014-Oct-19 14:33N 37°40' E 008°53'1111.3
2014-Oct-19 13:33N 37°40' E 009°07'1211.8
2014-Oct-19 12:32N 37°40' E 009°22'1212.2
2014-Oct-19 11:33N 37°40' E 009°38'1312.1
2014-Oct-19 10:28N 37°39' E 009°54'1111.9
2014-Oct-19 09:33N 37°39' E 010°08'11512.3
2014-Oct-19 00:11N 36°59' E 012°24'812.5
2014-Oct-18 23:33N 36°57' E 012°33'1312.5
2014-Oct-18 22:29N 36°53' E 012°49'1212.7
2014-Oct-18 21:33N 36°50' E 013°03'1312.7
2014-Oct-18 20:33N 36°46' E 013°19'1312.5
2014-Oct-18 19:33N 36°42' E 013°33'1212.4
2014-Oct-18 18:33N 36°38' E 013°48'1212.2
2014-Oct-18 17:33N 36°35' E 014°03'1211.9
2014-Oct-18 16:33N 36°31' E 014°17'1211.9
2014-Oct-18 15:33N 36°28' E 014°31'1212.1
2014-Oct-18 14:33N 36°28' E 014°46'1211.8
2014-Oct-18 13:33N 36°27' E 015°01'1211.9
2014-Oct-18 12:33N 36°27' E 015°16'25211.9
2014-Oct-17 15:25N 36°21' E 020°29'1111.9
2014-Oct-17 14:32N 36°20' E 020°42'9712.0
2014-Oct-17 06:30N 36°21' E 022°42'1312.6
2014-Oct-17 05:28N 36°25' E 022°58'1112.3
2014-Oct-17 04:33N 36°24' E 023°12'1111.6
2014-Oct-17 03:33N 36°28' E 023°25'1212.0
2014-Oct-17 02:33N 36°35' E 023°37'1312.7
2014-Oct-17 01:33N 36°47' E 023°44'1312.7
2014-Oct-17 00:33N 36°58' E 023°50'1312.9
2014-Oct-16 23:33N 37°10' E 023°57'1312.5
2014-Oct-16 22:32N 37°22' E 024°03'1212.2
2014-Oct-16 21:32N 37°33' E 024°09'1211.9
2014-Oct-16 20:33N 37°43' E 024°17'1611.8
2014-Oct-16 19:12N 37°52' E 024°33'2011.9
2014-Oct-16 17:31N 38°10' E 024°45'2512.8
2014-Oct-16 15:33N 38°33' E 024°59'1512.5
2014-Oct-16 14:23N 38°46' E 025°07'1012.7
2014-Oct-16 13:33N 38°55' E 025°13'1212.2
2014-Oct-16 12:32N 39°06' E 025°20'1211.8
2014-Oct-16 11:32N 39°17' E 025°26'4012.0
2014-Oct-16 08:11N 39°53' E 025°49'1112.7
2014-Oct-16 07:17N 40°01' E 026°01'3211.4
2014-Oct-16 04:27N 40°19' E 026°36'8 9.4
2014-Oct-16 03:33N 40°25' E 026°43'8 7.8
2014-Oct-16 02:33N 40°29' E 026°52'11510.2
2014-Oct-15 15:15N 41°20' E 029°09'7 3.8
2014-Oct-15 13:30N 41°24' E 029°15'1 0.4
2014-Oct-15 10:30N 41°23' E 029°15'1 0.4
2014-Oct-15 08:12N 41°23' E 029°14'324 8.8
2014-Oct-13 19:31N 46°35' E 031°16'9 9.8
2014-Oct-13 18:33N 46°36' E 031°30'8 7.9
2014-Oct-13 17:33N 46°36' E 031°41'9 9.1
2014-Oct-13 16:33N 46°38' E 031°54'8 8.3
2014-Oct-13 15:33N 46°46' E 031°53'9 9.1
2014-Oct-13 14:33N 46°54' E 032°01'2 2.2
2014-Oct-13 13:30N 46°56' E 032°01'0 0.0
2014-Oct-13 12:24N 46°56' E 032°01'0 0.0
2014-Oct-13 11:33N 46°56' E 032°01'0 0.0
2014-Oct-13 10:33N 46°56' E 032°01'0 0.0
2014-Oct-13 09:33N 46°56' E 032°01'0 0.0
2014-Oct-13 08:33N 46°56' E 032°01'0 0.0
2014-Oct-13 07:33N 46°56' E 032°01'0 0.0
2014-Oct-13 06:33N 46°56' E 032°01'0 0.0
2014-Oct-13 05:33N 46°56' E 032°01'0 0.0
2014-Oct-13 04:33N 46°56' E 032°01'0 0.0
2014-Oct-13 03:33N 46°56' E 032°01'0 0.0
2014-Oct-13 02:33N 46°56' E 032°01'0 0.0
2014-Oct-13 01:30N 46°56' E 032°01'0 0.0
2014-Oct-13 00:33N 46°56' E 032°01'0 0.0
2014-Oct-12 23:33N 46°56' E 032°01'0 0.0
2014-Oct-12 22:33N 46°56' E 032°01'0 0.0
2014-Oct-12 21:33N 46°56' E 032°01'0 0.0
2014-Oct-12 20:33N 46°56' E 032°01'0 0.0
2014-Oct-12 19:33N 46°56' E 032°01'0 0.0
2014-Oct-12 18:33N 46°56' E 032°01'0 0.0
2014-Oct-12 17:33N 46°56' E 032°01'0 0.0
2014-Oct-12 16:33N 46°56' E 032°01'0 0.0
2014-Oct-12 15:33N 46°56' E 032°01'0 0.0
2014-Oct-12 14:33N 46°56' E 032°01'0 0.0
2014-Oct-12 13:30N 46°56' E 032°01'0 0.0
2014-Oct-12 12:33N 46°56' E 032°01'0 0.0
2014-Oct-12 11:33N 46°56' E 032°01'  

Dump ship's entire track history